Platteville, WI

4:00 AM CDT on May 27, 2015 (GMT -0500)
Platteville Municipal | | Change Station
CLOSE
Current Station
Airport
Location: Platteville,
Elevation: 1024 ft
Nearby Weather Stations

Elev 1024 ft 42.69 °N, 90.44 °W | Updated 25 minutes ago

Overcast
Overcast
60 °F
Feels Like 60 °F
N
6
Wind Variable Wind from WSW

Today
High -- | Low -- °F
--% Chance of Precip.
Yesterday
High -- | Low -- °F
Precip. -- in
5:29 AM 8:28 PM
Waxing Gibbous, 65% visible
Pressure 29.84 in
Visibility 10.0 miles
Clouds Scattered Clouds 1300 ft
Mostly Cloudy 2900 ft
Overcast 5000 ft
Dew Point 59 °F
Humidity 98%
Rainfall 0.17 in
Snow Depth Not available.
UV 0 out of 12
Pollen 5.60 out of 12
Air Quality Not available.
Flu Activity Sporadic
METAR KPVB 270835Z AUTO 24005KT 10SM SCT013 BKN029 OVC050 15/15 A2984 RMK AO1 T01530150

More Conditions Fewer Conditions

Pressure 29.84 in
Visibility 10.0 miles
Clouds Scattered Clouds 1300 ft
Mostly Cloudy 2900 ft
Overcast 5000 ft
Dew Point 59 °F
Humidity 98%
Rainfall 0.17 in
Snow Depth Not available.
UV 0 out of 12
Pollen 5.60 out of 12
Air Quality Not available.
Flu Activity Sporadic
METAR KPVB 270835Z AUTO 24005KT 10SM SCT013 BKN029 OVC050 15/15 A2984 RMK AO1 T01530150

More Conditions Fewer Conditions

10-Day Weather Forecast

Almanac

Astronomy

May. 27, 2015 Rise Set
Actual Time
Civil Twilight
Nautical Twilight
Astronomical Twilight
Moon
Length of Visible Light
Length of Day
Tomorrow will be .
, % of the Moon is Illuminated

Today's Extremes

State Highs State Lows

Community

WunderPhotos

Upload Photos

1,824,634 photos uploaded!

WunderBlogs® & News

Nearby

Air Quality

  Air Quality AQ Index Pollutant
Not available.

Snow Depth

Station Depth Elevation

Earthquake Activity

City Distance Mag. Time & Date
Minimum magnitude displayed is 2.5.

Coastal Water Temperatures

Place Temperature

Stations

Nearby Weather Stations

Station Location Temp. Windchill Dew Point Humidity Wind Precip. Elev Updated Type